Terminal Aerodrome Forecast
Issued by NWS Wakefield, VA

Home | Current Version | Previous Version | Text Only | Print | Product List | Glossary On
Versions: 1 2 3 4 5 6 7 8 9 10 11 12 13 14 15 16 17
327
FTUS41 KAKQ 232351 RRA
TAFRIC
TAF
KRIC 232351Z 2400/2424 14012G20KT P6SM SCT040 BKN080
     FM240200 16014G22KT 6SM SHRA OVC040
     FM240400 18014G22KT 4SM SHRA BR OVC030
     FM240700 19011KT 4SM -SHRA OVC020
     FM241200 20009KT P6SM SCT025 BKN040
     FM241500 21012KT P6SM SCT040=

USA.gov is the U.S. government's official web portal to all federal, state and local government web resources and services.